sensor_id;sensor_type;location;lat;lon;timestamp;P1;durP1;ratioP1;P2;durP2;ratioP2
75737;SDS011;64356;45.638;13.764;2023-04-15T00:01:24;9.52;;;1.70;;
75737;SDS011;64356;45.638;13.764;2023-04-15T00:03:51;6.07;;;1.60;;
75737;SDS011;64356;45.638;13.764;2023-04-15T00:06:18;3.55;;;1.83;;
75737;SDS011;64356;45.638;13.764;2023-04-15T00:08:45;2.95;;;1.40;;
75737;SDS011;64356;45.638;13.764;2023-04-15T00:11:12;12.18;;;2.33;;
75737;SDS011;64356;45.638;13.764;2023-04-15T00:13:37;2.40;;;1.60;;
75737;SDS011;64356;45.638;13.764;2023-04-15T00:16:04;3.95;;;1.55;;
75737;SDS011;64356;45.638;13.764;2023-04-15T00:18:32;1.38;;;1.02;;
75737;SDS011;64356;45.638;13.764;2023-04-15T00:20:58;6.40;;;1.67;;
75737;SDS011;64356;45.638;13.764;2023-04-15T00:23:24;3.63;;;1.90;;
75737;SDS011;64356;45.638;13.764;2023-04-15T00:25:50;3.28;;;1.80;;
75737;SDS011;64356;45.638;13.764;2023-04-15T00:28:16;3.22;;;1.70;;
75737;SDS011;64356;45.638;13.764;2023-04-15T00:30:42;6.80;;;1.70;;
75737;SDS011;64356;45.638;13.764;2023-04-15T00:33:08;2.05;;;1.13;;
75737;SDS011;64356;45.638;13.764;2023-04-15T00:35:34;3.63;;;1.52;;
75737;SDS011;64356;45.638;13.764;2023-04-15T00:38:04;5.22;;;2.00;;
75737;SDS011;64356;45.638;13.764;2023-04-15T00:40:31;3.08;;;1.75;;
75737;SDS011;64356;45.638;13.764;2023-04-15T00:42:57;1.58;;;1.25;;
75737;SDS011;64356;45.638;13.764;2023-04-15T00:45:23;2.40;;;1.33;;
75737;SDS011;64356;45.638;13.764;2023-04-15T00:47:49;2.00;;;1.30;;
75737;SDS011;64356;45.638;13.764;2023-04-15T00:50:15;10.43;;;1.85;;
75737;SDS011;64356;45.638;13.764;2023-04-15T00:52:41;2.67;;;1.70;;
75737;SDS011;64356;45.638;13.764;2023-04-15T00:55:07;3.28;;;1.50;;
75737;SDS011;64356;45.638;13.764;2023-04-15T00:57:34;5.65;;;1.80;;
75737;SDS011;64356;45.638;13.764;2023-04-15T01:00:00;4.78;;;1.60;;
75737;SDS011;64356;45.638;13.764;2023-04-15T01:02:27;2.85;;;1.45;;
75737;SDS011;64356;45.638;13.764;2023-04-15T01:04:52;4.20;;;1.70;;
75737;SDS011;64356;45.638;13.764;2023-04-15T01:07:18;4.70;;;1.73;;
75737;SDS011;64356;45.638;13.764;2023-04-15T01:09:44;1.67;;;1.23;;
75737;SDS011;64356;45.638;13.764;2023-04-15T01:12:13;3.28;;;1.45;;
75737;SDS011;64356;45.638;13.764;2023-04-15T01:14:40;4.43;;;2.03;;
75737;SDS011;64356;45.638;13.764;2023-04-15T01:17:06;3.65;;;1.83;;
75737;SDS011;64356;45.638;13.764;2023-04-15T01:19:32;5.65;;;1.40;;
75737;SDS011;64356;45.638;13.764;2023-04-15T01:21:57;3.45;;;1.77;;
75737;SDS011;64356;45.638;13.764;2023-04-15T01:24:23;6.10;;;1.50;;
75737;SDS011;64356;45.638;13.764;2023-04-15T01:26:52;2.28;;;1.42;;
75737;SDS011;64356;45.638;13.764;2023-04-15T01:29:18;2.83;;;1.58;;
75737;SDS011;64356;45.638;13.764;2023-04-15T01:31:50;3.15;;;1.52;;
75737;SDS011;64356;45.638;13.764;2023-04-15T01:34:17;2.15;;;1.55;;
75737;SDS011;64356;45.638;13.764;2023-04-15T01:36:42;3.08;;;1.50;;
75737;SDS011;64356;45.638;13.764;2023-04-15T01:39:09;1.52;;;1.42;;
75737;SDS011;64356;45.638;13.764;2023-04-15T01:41:34;2.97;;;1.80;;
75737;SDS011;64356;45.638;13.764;2023-04-15T01:44:00;2.97;;;1.52;;
75737;SDS011;64356;45.638;13.764;2023-04-15T01:46:26;4.35;;;1.58;;
75737;SDS011;64356;45.638;13.764;2023-04-15T01:48:52;2.92;;;1.60;;
75737;SDS011;64356;45.638;13.764;2023-04-15T01:51:17;4.13;;;1.58;;
75737;SDS011;64356;45.638;13.764;2023-04-15T01:53:43;6.05;;;1.63;;
75737;SDS011;64356;45.638;13.764;2023-04-15T01:56:09;1.50;;;1.40;;
75737;SDS011;64356;45.638;13.764;2023-04-15T01:58:35;3.42;;;1.42;;
75737;SDS011;64356;45.638;13.764;2023-04-15T02:01:01;1.95;;;1.38;;
75737;SDS011;64356;45.638;13.764;2023-04-15T02:03:28;2.35;;;1.52;;
75737;SDS011;64356;45.638;13.764;2023-04-15T02:05:54;2.50;;;1.30;;
75737;SDS011;64356;45.638;13.764;2023-04-15T02:08:19;1.77;;;1.50;;
75737;SDS011;64356;45.638;13.764;2023-04-15T02:10:45;4.25;;;1.30;;
75737;SDS011;64356;45.638;13.764;2023-04-15T02:13:11;3.58;;;1.77;;
75737;SDS011;64356;45.638;13.764;2023-04-15T02:15:37;3.35;;;1.77;;
75737;SDS011;64356;45.638;13.764;2023-04-15T02:18:03;3.15;;;1.30;;
75737;SDS011;64356;45.638;13.764;2023-04-15T02:20:29;1.67;;;1.40;;
75737;SDS011;64356;45.638;13.764;2023-04-15T02:22:55;2.25;;;1.35;;
75737;SDS011;64356;45.638;13.764;2023-04-15T02:25:21;2.88;;;1.45;;
75737;SDS011;64356;45.638;13.764;2023-04-15T02:27:47;2.60;;;1.67;;
75737;SDS011;64356;45.638;13.764;2023-04-15T02:30:12;3.08;;;1.45;;
75737;SDS011;64356;45.638;13.764;2023-04-15T02:32:39;3.90;;;1.85;;
75737;SDS011;64356;45.638;13.764;2023-04-15T02:35:06;3.90;;;1.60;;
75737;SDS011;64356;45.638;13.764;2023-04-15T02:37:34;4.80;;;2.22;;
75737;SDS011;64356;45.638;13.764;2023-04-15T02:40:05;2.80;;;1.40;;
75737;SDS011;64356;45.638;13.764;2023-04-15T02:42:33;1.73;;;1.30;;
75737;SDS011;64356;45.638;13.764;2023-04-15T02:44:59;1.85;;;1.40;;
75737;SDS011;64356;45.638;13.764;2023-04-15T02:47:24;2.33;;;1.27;;
75737;SDS011;64356;45.638;13.764;2023-04-15T02:49:50;3.58;;;1.48;;
75737;SDS011;64356;45.638;13.764;2023-04-15T02:52:16;3.20;;;1.40;;
75737;SDS011;64356;45.638;13.764;2023-04-15T02:54:42;1.42;;;1.13;;
75737;SDS011;64356;45.638;13.764;2023-04-15T02:57:08;2.85;;;1.60;;
75737;SDS011;64356;45.638;13.764;2023-04-15T02:59:35;4.22;;;1.40;;
75737;SDS011;64356;45.638;13.764;2023-04-15T03:02:01;2.33;;;1.30;;
75737;SDS011;64356;45.638;13.764;2023-04-15T03:04:27;1.33;;;1.00;;
75737;SDS011;64356;45.638;13.764;2023-04-15T03:06:54;2.90;;;1.52;;
75737;SDS011;64356;45.638;13.764;2023-04-15T03:09:20;1.95;;;1.60;;
75737;SDS011;64356;45.638;13.764;2023-04-15T03:11:46;2.42;;;1.42;;
75737;SDS011;64356;45.638;13.764;2023-04-15T03:14:12;3.03;;;1.10;;
75737;SDS011;64356;45.638;13.764;2023-04-15T03:16:37;2.65;;;1.20;;
75737;SDS011;64356;45.638;13.764;2023-04-15T03:19:03;1.35;;;1.15;;
75737;SDS011;64356;45.638;13.764;2023-04-15T03:21:29;2.45;;;1.45;;
75737;SDS011;64356;45.638;13.764;2023-04-15T03:23:55;2.25;;;1.35;;
75737;SDS011;64356;45.638;13.764;2023-04-15T03:26:25;2.30;;;1.40;;
75737;SDS011;64356;45.638;13.764;2023-04-15T03:28:54;1.98;;;1.63;;
75737;SDS011;64356;45.638;13.764;2023-04-15T03:31:20;4.45;;;1.65;;
75737;SDS011;64356;45.638;13.764;2023-04-15T03:33:46;1.65;;;1.30;;
75737;SDS011;64356;45.638;13.764;2023-04-15T03:36:12;4.00;;;1.42;;
75737;SDS011;64356;45.638;13.764;2023-04-15T03:38:38;2.25;;;1.50;;
75737;SDS011;64356;45.638;13.764;2023-04-15T03:41:04;1.63;;;1.33;;
75737;SDS011;64356;45.638;13.764;2023-04-15T03:43:30;2.30;;;1.42;;
75737;SDS011;64356;45.638;13.764;2023-04-15T03:45:55;2.30;;;1.48;;
75737;SDS011;64356;45.638;13.764;2023-04-15T03:48:21;2.28;;;1.25;;
75737;SDS011;64356;45.638;13.764;2023-04-15T03:50:47;1.92;;;1.25;;
75737;SDS011;64356;45.638;13.764;2023-04-15T03:53:14;1.85;;;1.05;;
75737;SDS011;64356;45.638;13.764;2023-04-15T03:55:40;3.20;;;1.33;;
75737;SDS011;64356;45.638;13.764;2023-04-15T03:58:05;1.80;;;1.27;;
75737;SDS011;64356;45.638;13.764;2023-04-15T04:00:31;1.98;;;1.25;;
75737;SDS011;64356;45.638;13.764;2023-04-15T04:02:57;2.55;;;1.30;;
75737;SDS011;64356;45.638;13.764;2023-04-15T04:05:23;1.42;;;1.33;;
75737;SDS011;64356;45.638;13.764;2023-04-15T04:07:48;3.25;;;1.75;;
75737;SDS011;64356;45.638;13.764;2023-04-15T04:10:14;1.90;;;1.48;;
75737;SDS011;64356;45.638;13.764;2023-04-15T04:12:40;3.03;;;1.42;;
75737;SDS011;64356;45.638;13.764;2023-04-15T04:15:06;6.90;;;1.80;;
75737;SDS011;64356;45.638;13.764;2023-04-15T04:17:32;2.08;;;1.58;;
75737;SDS011;64356;45.638;13.764;2023-04-15T04:19:58;2.53;;;1.40;;
75737;SDS011;64356;45.638;13.764;2023-04-15T04:22:23;1.95;;;1.40;;
75737;SDS011;64356;45.638;13.764;2023-04-15T04:24:49;2.08;;;1.17;;
75737;SDS011;64356;45.638;13.764;2023-04-15T04:27:15;2.13;;;1.20;;
75737;SDS011;64356;45.638;13.764;2023-04-15T04:29:41;1.35;;;1.20;;
75737;SDS011;64356;45.638;13.764;2023-04-15T04:32:07;1.23;;;1.13;;
75737;SDS011;64356;45.638;13.764;2023-04-15T04:34:32;3.63;;;1.48;;
75737;SDS011;64356;45.638;13.764;2023-04-15T04:36:58;1.40;;;1.30;;
75737;SDS011;64356;45.638;13.764;2023-04-15T04:39:24;2.50;;;1.20;;
75737;SDS011;64356;45.638;13.764;2023-04-15T04:41:49;1.42;;;1.23;;
75737;SDS011;64356;45.638;13.764;2023-04-15T04:44:16;1.55;;;1.33;;
75737;SDS011;64356;45.638;13.764;2023-04-15T04:46:42;3.65;;;1.25;;
75737;SDS011;64356;45.638;13.764;2023-04-15T04:49:08;2.38;;;1.13;;
75737;SDS011;64356;45.638;13.764;2023-04-15T04:51:33;2.30;;;1.20;;
75737;SDS011;64356;45.638;13.764;2023-04-15T04:54:00;1.60;;;1.05;;
75737;SDS011;64356;45.638;13.764;2023-04-15T04:56:26;1.52;;;1.25;;
75737;SDS011;64356;45.638;13.764;2023-04-15T04:58:51;1.52;;;1.23;;
75737;SDS011;64356;45.638;13.764;2023-04-15T05:01:17;1.73;;;1.13;;
75737;SDS011;64356;45.638;13.764;2023-04-15T05:03:43;1.42;;;1.20;;
75737;SDS011;64356;45.638;13.764;2023-04-15T05:06:09;1.98;;;1.13;;
75737;SDS011;64356;45.638;13.764;2023-04-15T05:08:34;5.00;;;1.50;;
75737;SDS011;64356;45.638;13.764;2023-04-15T05:11:01;2.63;;;1.02;;
75737;SDS011;64356;45.638;13.764;2023-04-15T05:13:27;1.80;;;1.20;;
75737;SDS011;64356;45.638;13.764;2023-04-15T05:15:54;1.98;;;1.00;;
75737;SDS011;64356;45.638;13.764;2023-04-15T05:18:20;1.33;;;1.08;;
75737;SDS011;64356;45.638;13.764;2023-04-15T05:20:45;2.03;;;1.30;;
75737;SDS011;64356;45.638;13.764;2023-04-15T05:23:11;1.52;;;1.05;;
75737;SDS011;64356;45.638;13.764;2023-04-15T05:25:37;3.95;;;1.45;;
75737;SDS011;64356;45.638;13.764;2023-04-15T05:28:03;2.13;;;1.02;;
75737;SDS011;64356;45.638;13.764;2023-04-15T05:30:28;2.58;;;1.10;;
75737;SDS011;64356;45.638;13.764;2023-04-15T05:32:54;2.28;;;0.80;;
75737;SDS011;64356;45.638;13.764;2023-04-15T05:35:20;1.88;;;0.85;;
75737;SDS011;64356;45.638;13.764;2023-04-15T05:37:46;2.22;;;0.90;;
75737;SDS011;64356;45.638;13.764;2023-04-15T05:40:11;2.22;;;1.08;;
75737;SDS011;64356;45.638;13.764;2023-04-15T05:42:37;5.35;;;1.13;;
75737;SDS011;64356;45.638;13.764;2023-04-15T05:45:03;3.25;;;1.30;;
75737;SDS011;64356;45.638;13.764;2023-04-15T05:47:33;4.25;;;1.38;;
75737;SDS011;64356;45.638;13.764;2023-04-15T05:49:59;4.45;;;1.60;;
75737;SDS011;64356;45.638;13.764;2023-04-15T05:52:25;2.45;;;1.10;;
75737;SDS011;64356;45.638;13.764;2023-04-15T05:54:51;3.50;;;1.13;;
75737;SDS011;64356;45.638;13.764;2023-04-15T05:57:17;3.47;;;1.20;;
75737;SDS011;64356;45.638;13.764;2023-04-15T05:59:42;3.15;;;1.48;;
75737;SDS011;64356;45.638;13.764;2023-04-15T06:02:09;5.03;;;1.10;;
75737;SDS011;64356;45.638;13.764;2023-04-15T06:04:34;1.45;;;0.90;;
75737;SDS011;64356;45.638;13.764;2023-04-15T06:07:01;4.40;;;1.05;;
75737;SDS011;64356;45.638;13.764;2023-04-15T06:09:26;3.10;;;1.20;;
75737;SDS011;64356;45.638;13.764;2023-04-15T06:11:53;1.52;;;0.90;;
75737;SDS011;64356;45.638;13.764;2023-04-15T06:14:18;5.38;;;0.88;;
75737;SDS011;64356;45.638;13.764;2023-04-15T06:16:44;3.13;;;1.20;;
75737;SDS011;64356;45.638;13.764;2023-04-15T06:19:10;4.47;;;0.98;;
75737;SDS011;64356;45.638;13.764;2023-04-15T06:21:36;3.38;;;1.23;;
75737;SDS011;64356;45.638;13.764;2023-04-15T06:24:02;1.80;;;1.05;;
75737;SDS011;64356;45.638;13.764;2023-04-15T06:26:28;3.28;;;1.17;;
75737;SDS011;64356;45.638;13.764;2023-04-15T06:28:53;4.32;;;1.38;;
75737;SDS011;64356;45.638;13.764;2023-04-15T06:31:19;2.25;;;0.95;;
75737;SDS011;64356;45.638;13.764;2023-04-15T06:33:45;4.20;;;1.23;;
75737;SDS011;64356;45.638;13.764;2023-04-15T06:36:11;4.38;;;1.10;;
75737;SDS011;64356;45.638;13.764;2023-04-15T06:38:36;2.05;;;0.88;;
75737;SDS011;64356;45.638;13.764;2023-04-15T06:41:03;2.15;;;1.00;;
75737;SDS011;64356;45.638;13.764;2023-04-15T06:43:29;2.38;;;1.20;;
75737;SDS011;64356;45.638;13.764;2023-04-15T06:45:55;2.35;;;1.65;;
75737;SDS011;64356;45.638;13.764;2023-04-15T06:48:21;3.50;;;1.33;;
75737;SDS011;64356;45.638;13.764;2023-04-15T06:50:47;6.32;;;1.92;;
75737;SDS011;64356;45.638;13.764;2023-04-15T06:53:13;4.50;;;1.40;;
75737;SDS011;64356;45.638;13.764;2023-04-15T06:55:39;3.78;;;1.77;;
75737;SDS011;64356;45.638;13.764;2023-04-15T06:58:05;3.33;;;1.63;;
75737;SDS011;64356;45.638;13.764;2023-04-15T07:00:31;7.40;;;1.88;;
75737;SDS011;64356;45.638;13.764;2023-04-15T07:02:58;4.05;;;1.75;;
75737;SDS011;64356;45.638;13.764;2023-04-15T07:05:27;3.42;;;1.63;;
75737;SDS011;64356;45.638;13.764;2023-04-15T07:07:53;3.83;;;1.55;;
75737;SDS011;64356;45.638;13.764;2023-04-15T07:10:19;5.85;;;1.42;;
75737;SDS011;64356;45.638;13.764;2023-04-15T07:12:45;2.13;;;1.02;;
75737;SDS011;64356;45.638;13.764;2023-04-15T07:15:12;2.65;;;1.27;;
75737;SDS011;64356;45.638;13.764;2023-04-15T07:17:38;6.97;;;1.67;;
75737;SDS011;64356;45.638;13.764;2023-04-15T07:20:05;3.13;;;1.45;;
75737;SDS011;64356;45.638;13.764;2023-04-15T07:22:31;1.88;;;1.00;;
75737;SDS011;64356;45.638;13.764;2023-04-15T07:24:58;2.33;;;1.00;;
75737;SDS011;64356;45.638;13.764;2023-04-15T07:27:23;2.47;;;1.40;;
75737;SDS011;64356;45.638;13.764;2023-04-15T07:29:49;1.75;;;1.02;;
75737;SDS011;64356;45.638;13.764;2023-04-15T07:32:16;2.53;;;1.15;;
75737;SDS011;64356;45.638;13.764;2023-04-15T07:34:42;1.25;;;1.10;;
75737;SDS011;64356;45.638;13.764;2023-04-15T07:37:08;3.03;;;1.17;;
75737;SDS011;64356;45.638;13.764;2023-04-15T07:39:34;2.28;;;1.20;;
75737;SDS011;64356;45.638;13.764;2023-04-15T07:41:59;4.20;;;1.10;;
75737;SDS011;64356;45.638;13.764;2023-04-15T07:44:26;8.63;;;1.20;;
75737;SDS011;64356;45.638;13.764;2023-04-15T07:46:52;4.10;;;1.38;;
75737;SDS011;64356;45.638;13.764;2023-04-15T07:49:18;5.93;;;1.58;;
75737;SDS011;64356;45.638;13.764;2023-04-15T07:51:45;8.65;;;2.33;;
75737;SDS011;64356;45.638;13.764;2023-04-15T07:54:11;6.97;;;1.30;;
75737;SDS011;64356;45.638;13.764;2023-04-15T07:56:37;13.32;;;1.77;;
75737;SDS011;64356;45.638;13.764;2023-04-15T07:59:03;4.10;;;1.20;;
75737;SDS011;64356;45.638;13.764;2023-04-15T08:01:30;13.82;;;1.60;;
75737;SDS011;64356;45.638;13.764;2023-04-15T08:03:57;6.30;;;1.25;;
75737;SDS011;64356;45.638;13.764;2023-04-15T08:06:23;3.40;;;1.20;;
75737;SDS011;64356;45.638;13.764;2023-04-15T08:08:48;4.70;;;1.90;;
75737;SDS011;64356;45.638;13.764;2023-04-15T08:11:14;3.67;;;1.40;;
75737;SDS011;64356;45.638;13.764;2023-04-15T08:13:41;2.30;;;0.98;;
75737;SDS011;64356;45.638;13.764;2023-04-15T08:16:22;6.22;;;1.00;;
75737;SDS011;64356;45.638;13.764;2023-04-15T08:18:49;8.70;;;1.83;;
75737;SDS011;64356;45.638;13.764;2023-04-15T08:21:17;6.97;;;2.03;;
75737;SDS011;64356;45.638;13.764;2023-04-15T08:23:47;8.82;;;1.40;;
75737;SDS011;64356;45.638;13.764;2023-04-15T08:26:14;7.68;;;2.22;;
75737;SDS011;64356;45.638;13.764;2023-04-15T08:28:40;5.30;;;1.15;;
75737;SDS011;64356;45.638;13.764;2023-04-15T08:31:07;5.53;;;1.50;;
75737;SDS011;64356;45.638;13.764;2023-04-15T08:33:33;6.30;;;1.45;;
75737;SDS011;64356;45.638;13.764;2023-04-15T08:35:59;6.85;;;1.45;;
75737;SDS011;64356;45.638;13.764;2023-04-15T08:38:24;4.75;;;1.48;;
75737;SDS011;64356;45.638;13.764;2023-04-15T08:40:50;7.35;;;1.67;;
75737;SDS011;64356;45.638;13.764;2023-04-15T08:43:23;3.45;;;1.20;;
75737;SDS011;64356;45.638;13.764;2023-04-15T08:45:54;6.63;;;1.50;;
75737;SDS011;64356;45.638;13.764;2023-04-15T08:48:23;8.07;;;1.38;;
75737;SDS011;64356;45.638;13.764;2023-04-15T08:50:52;6.00;;;1.58;;
75737;SDS011;64356;45.638;13.764;2023-04-15T08:53:18;2.72;;;1.20;;
75737;SDS011;64356;45.638;13.764;2023-04-15T08:55:44;8.90;;;1.52;;
75737;SDS011;64356;45.638;13.764;2023-04-15T08:58:14;2.10;;;1.40;;
75737;SDS011;64356;45.638;13.764;2023-04-15T09:00:40;4.63;;;1.05;;
75737;SDS011;64356;45.638;13.764;2023-04-15T09:03:07;3.60;;;1.50;;
75737;SDS011;64356;45.638;13.764;2023-04-15T09:05:36;3.95;;;1.08;;
75737;SDS011;64356;45.638;13.764;2023-04-15T09:08:02;3.53;;;1.52;;
75737;SDS011;64356;45.638;13.764;2023-04-15T09:10:29;3.70;;;1.17;;
75737;SDS011;64356;45.638;13.764;2023-04-15T09:12:55;3.80;;;1.20;;
75737;SDS011;64356;45.638;13.764;2023-04-15T09:15:24;2.72;;;1.23;;
75737;SDS011;64356;45.638;13.764;2023-04-15T09:17:51;3.00;;;1.13;;
75737;SDS011;64356;45.638;13.764;2023-04-15T09:20:17;3.30;;;1.10;;
75737;SDS011;64356;45.638;13.764;2023-04-15T09:22:44;4.22;;;1.58;;
75737;SDS011;64356;45.638;13.764;2023-04-15T09:27:53;4.60;;;1.52;;
75737;SDS011;64356;45.638;13.764;2023-04-15T09:30:23;8.70;;;1.33;;
75737;SDS011;64356;45.638;13.764;2023-04-15T09:32:49;5.63;;;1.92;;
75737;SDS011;64356;45.638;13.764;2023-04-15T09:35:16;2.40;;;1.13;;
75737;SDS011;64356;45.638;13.764;2023-04-15T09:37:42;4.93;;;1.38;;
75737;SDS011;64356;45.638;13.764;2023-04-15T09:40:08;4.18;;;1.65;;
75737;SDS011;64356;45.638;13.764;2023-04-15T09:42:35;5.25;;;1.67;;
75737;SDS011;64356;45.638;13.764;2023-04-15T09:45:11;5.88;;;2.00;;
75737;SDS011;64356;45.638;13.764;2023-04-15T09:47:36;2.53;;;1.30;;
75737;SDS011;64356;45.638;13.764;2023-04-15T09:50:02;4.03;;;1.40;;
75737;SDS011;64356;45.638;13.764;2023-04-15T09:52:28;7.68;;;1.40;;
75737;SDS011;64356;45.638;13.764;2023-04-15T09:54:56;5.50;;;1.50;;
75737;SDS011;64356;45.638;13.764;2023-04-15T09:57:23;7.95;;;1.60;;
75737;SDS011;64356;45.638;13.764;2023-04-15T09:59:49;5.20;;;1.55;;
75737;SDS011;64356;45.638;13.764;2023-04-15T10:02:15;3.38;;;1.33;;
75737;SDS011;64356;45.638;13.764;2023-04-15T10:04:44;8.82;;;1.50;;
75737;SDS011;64356;45.638;13.764;2023-04-15T10:07:12;5.07;;;1.90;;
75737;SDS011;64356;45.638;13.764;2023-04-15T10:09:39;4.90;;;1.55;;
75737;SDS011;64356;45.638;13.764;2023-04-15T10:12:05;10.15;;;1.80;;
75737;SDS011;64356;45.638;13.764;2023-04-15T10:14:32;7.13;;;1.25;;
75737;SDS011;64356;45.638;13.764;2023-04-15T10:17:03;6.03;;;1.70;;
75737;SDS011;64356;45.638;13.764;2023-04-15T10:19:30;3.92;;;1.63;;
75737;SDS011;64356;45.638;13.764;2023-04-15T10:21:57;6.97;;;1.55;;
75737;SDS011;64356;45.638;13.764;2023-04-15T10:24:24;4.70;;;1.40;;
75737;SDS011;64356;45.638;13.764;2023-04-15T10:26:50;8.73;;;2.13;;
75737;SDS011;64356;45.638;13.764;2023-04-15T10:29:16;7.97;;;1.73;;
75737;SDS011;64356;45.638;13.764;2023-04-15T10:31:42;7.20;;;1.80;;
75737;SDS011;64356;45.638;13.764;2023-04-15T10:34:09;7.43;;;1.50;;
75737;SDS011;64356;45.638;13.764;2023-04-15T10:36:35;5.55;;;1.55;;
75737;SDS011;64356;45.638;13.764;2023-04-15T10:39:01;4.57;;;1.40;;
75737;SDS011;64356;45.638;13.764;2023-04-15T10:41:47;6.72;;;1.65;;
75737;SDS011;64356;45.638;13.764;2023-04-15T10:44:58;2.83;;;1.40;;
75737;SDS011;64356;45.638;13.764;2023-04-15T10:47:24;7.28;;;1.70;;
75737;SDS011;64356;45.638;13.764;2023-04-15T10:49:51;3.90;;;1.33;;
75737;SDS011;64356;45.638;13.764;2023-04-15T10:52:27;5.30;;;2.08;;
75737;SDS011;64356;45.638;13.764;2023-04-15T10:55:02;7.20;;;1.60;;
75737;SDS011;64356;45.638;13.764;2023-04-15T10:57:36;4.55;;;1.40;;
75737;SDS011;64356;45.638;13.764;2023-04-15T11:00:16;7.65;;;1.98;;
75737;SDS011;64356;45.638;13.764;2023-04-15T11:05:47;4.63;;;1.45;;
75737;SDS011;64356;45.638;13.764;2023-04-15T11:08:13;3.85;;;1.02;;
75737;SDS011;64356;45.638;13.764;2023-04-15T11:20:38;16.73;;;2.22;;
75737;SDS011;64356;45.638;13.764;2023-04-15T11:23:04;18.08;;;3.38;;
75737;SDS011;64356;45.638;13.764;2023-04-15T11:25:31;34.72;;;2.75;;
75737;SDS011;64356;45.638;13.764;2023-04-15T11:27:58;31.92;;;4.13;;
75737;SDS011;64356;45.638;13.764;2023-04-15T11:30:29;40.20;;;3.72;;
75737;SDS011;64356;45.638;13.764;2023-04-15T11:32:58;24.38;;;2.97;;
75737;SDS011;64356;45.638;13.764;2023-04-15T11:35:25;11.77;;;2.50;;
75737;SDS011;64356;45.638;13.764;2023-04-15T11:37:51;17.10;;;2.28;;
75737;SDS011;64356;45.638;13.764;2023-04-15T11:40:24;21.88;;;2.90;;
75737;SDS011;64356;45.638;13.764;2023-04-15T11:43:07;16.40;;;2.08;;
75737;SDS011;64356;45.638;13.764;2023-04-15T11:45:35;12.60;;;1.75;;
75737;SDS011;64356;45.638;13.764;2023-04-15T11:48:08;10.20;;;1.85;;
75737;SDS011;64356;45.638;13.764;2023-04-15T11:50:35;6.13;;;1.45;;
75737;SDS011;64356;45.638;13.764;2023-04-15T11:53:04;7.85;;;1.50;;
75737;SDS011;64356;45.638;13.764;2023-04-15T11:55:40;6.68;;;1.20;;
75737;SDS011;64356;45.638;13.764;2023-04-15T11:58:18;11.77;;;1.63;;
75737;SDS011;64356;45.638;13.764;2023-04-15T12:13:53;4.28;;;1.40;;
75737;SDS011;64356;45.638;13.764;2023-04-15T12:16:21;3.10;;;1.25;;
75737;SDS011;64356;45.638;13.764;2023-04-15T12:18:51;3.58;;;1.42;;
75737;SDS011;64356;45.638;13.764;2023-04-15T12:21:20;4.93;;;1.73;;
75737;SDS011;64356;45.638;13.764;2023-04-15T12:23:47;5.45;;;1.30;;
75737;SDS011;64356;45.638;13.764;2023-04-15T12:26:16;8.32;;;1.92;;
75737;SDS011;64356;45.638;13.764;2023-04-15T12:28:52;3.35;;;1.23;;
75737;SDS011;64356;45.638;13.764;2023-04-15T12:31:28;5.55;;;1.35;;
75737;SDS011;64356;45.638;13.764;2023-04-15T12:33:55;3.92;;;1.40;;
75737;SDS011;64356;45.638;13.764;2023-04-15T12:36:25;4.47;;;1.20;;
75737;SDS011;64356;45.638;13.764;2023-04-15T12:38:51;4.20;;;1.20;;
75737;SDS011;64356;45.638;13.764;2023-04-15T12:41:17;8.05;;;1.35;;
75737;SDS011;64356;45.638;13.764;2023-04-15T12:43:46;4.35;;;1.52;;
75737;SDS011;64356;45.638;13.764;2023-04-15T12:46:14;6.78;;;1.63;;
75737;SDS011;64356;45.638;13.764;2023-04-15T12:48:40;4.40;;;1.38;;
75737;SDS011;64356;45.638;13.764;2023-04-15T12:51:06;3.05;;;1.00;;
75737;SDS011;64356;45.638;13.764;2023-04-15T12:53:32;4.80;;;1.42;;
75737;SDS011;64356;45.638;13.764;2023-04-15T12:55:58;4.88;;;1.55;;
75737;SDS011;64356;45.638;13.764;2023-04-15T12:58:24;2.38;;;1.50;;
75737;SDS011;64356;45.638;13.764;2023-04-15T13:00:49;4.22;;;1.40;;
75737;SDS011;64356;45.638;13.764;2023-04-15T13:03:15;4.03;;;1.48;;
75737;SDS011;64356;45.638;13.764;2023-04-15T13:05:41;5.10;;;1.23;;
75737;SDS011;64356;45.638;13.764;2023-04-15T13:08:07;3.92;;;1.55;;
75737;SDS011;64356;45.638;13.764;2023-04-15T13:10:34;4.18;;;1.27;;
75737;SDS011;64356;45.638;13.764;2023-04-15T13:13:03;2.65;;;1.15;;
75737;SDS011;64356;45.638;13.764;2023-04-15T13:15:29;4.97;;;1.20;;
75737;SDS011;64356;45.638;13.764;2023-04-15T13:17:54;4.85;;;1.40;;
75737;SDS011;64356;45.638;13.764;2023-04-15T13:20:20;6.80;;;1.27;;
75737;SDS011;64356;45.638;13.764;2023-04-15T13:22:46;5.70;;;1.20;;
75737;SDS011;64356;45.638;13.764;2023-04-15T13:25:12;5.25;;;1.83;;
75737;SDS011;64356;45.638;13.764;2023-04-15T13:27:38;8.93;;;2.17;;
75737;SDS011;64356;45.638;13.764;2023-04-15T13:30:04;7.80;;;2.20;;
75737;SDS011;64356;45.638;13.764;2023-04-15T13:32:30;2.72;;;1.50;;
75737;SDS011;64356;45.638;13.764;2023-04-15T13:34:56;2.80;;;1.25;;
75737;SDS011;64356;45.638;13.764;2023-04-15T13:37:28;2.00;;;1.10;;
75737;SDS011;64356;45.638;13.764;2023-04-15T13:39:54;2.92;;;1.25;;
75737;SDS011;64356;45.638;13.764;2023-04-15T13:42:21;6.30;;;1.25;;
75737;SDS011;64356;45.638;13.764;2023-04-15T13:44:48;5.50;;;1.63;;
75737;SDS011;64356;45.638;13.764;2023-04-15T13:47:15;6.55;;;1.55;;
75737;SDS011;64356;45.638;13.764;2023-04-15T13:49:42;4.35;;;1.30;;
75737;SDS011;64356;45.638;13.764;2023-04-15T13:52:08;1.55;;;1.27;;
75737;SDS011;64356;45.638;13.764;2023-04-15T13:54:33;2.63;;;1.20;;
75737;SDS011;64356;45.638;13.764;2023-04-15T13:56:59;5.25;;;1.20;;
75737;SDS011;64356;45.638;13.764;2023-04-15T13:59:25;3.28;;;1.02;;
75737;SDS011;64356;45.638;13.764;2023-04-15T14:01:51;3.88;;;1.20;;
75737;SDS011;64356;45.638;13.764;2023-04-15T14:04:17;3.95;;;1.27;;
75737;SDS011;64356;45.638;13.764;2023-04-15T14:06:42;3.55;;;1.10;;
75737;SDS011;64356;45.638;13.764;2023-04-15T14:09:08;5.07;;;1.40;;
75737;SDS011;64356;45.638;13.764;2023-04-15T14:11:34;3.13;;;1.15;;
75737;SDS011;64356;45.638;13.764;2023-04-15T14:14:01;2.85;;;1.10;;
75737;SDS011;64356;45.638;13.764;2023-04-15T14:16:27;2.90;;;1.40;;
75737;SDS011;64356;45.638;13.764;2023-04-15T14:18:53;2.47;;;0.90;;
75737;SDS011;64356;45.638;13.764;2023-04-15T14:21:19;1.40;;;1.02;;
75737;SDS011;64356;45.638;13.764;2023-04-15T14:23:44;2.22;;;1.10;;
75737;SDS011;64356;45.638;13.764;2023-04-15T14:26:10;3.75;;;1.75;;
75737;SDS011;64356;45.638;13.764;2023-04-15T14:28:37;3.30;;;1.17;;
75737;SDS011;64356;45.638;13.764;2023-04-15T14:31:03;1.42;;;1.00;;
75737;SDS011;64356;45.638;13.764;2023-04-15T14:33:29;3.28;;;1.75;;
75737;SDS011;64356;45.638;13.764;2023-04-15T14:35:55;4.00;;;1.50;;
75737;SDS011;64356;45.638;13.764;2023-04-15T14:38:21;2.55;;;1.10;;
75737;SDS011;64356;45.638;13.764;2023-04-15T14:40:47;2.15;;;1.20;;
75737;SDS011;64356;45.638;13.764;2023-04-15T14:43:13;2.53;;;1.00;;
75737;SDS011;64356;45.638;13.764;2023-04-15T14:45:38;4.20;;;1.20;;
75737;SDS011;64356;45.638;13.764;2023-04-15T14:48:05;1.83;;;1.20;;
75737;SDS011;64356;45.638;13.764;2023-04-15T14:50:33;5.35;;;1.52;;
75737;SDS011;64356;45.638;13.764;2023-04-15T14:52:59;3.28;;;0.90;;
75737;SDS011;64356;45.638;13.764;2023-04-15T14:55:25;1.38;;;1.02;;
75737;SDS011;64356;45.638;13.764;2023-04-15T14:57:51;4.25;;;1.48;;
75737;SDS011;64356;45.638;13.764;2023-04-15T15:00:17;3.25;;;1.08;;